Time;durP1;ratioP1;P1;durP2;ratioP2;P2;SDS_P1;SDS_P2;PMS_P1;PMS_P2;Temp;Humidity;BMP_temperature;BMP_pressure;BME280_temperature;BME280_humidity;BME280_pressure;Samples;Min_cycle;Max_cycle;Signal;HPM_P1;HPM_P2
2023/07/10 00:00:57;;;;;;;32.00;23.80;;;19.60;99.90;;;;;;4950933;29;20047;-86
2023/07/10 00:03:23;;;;;;;28.65;23.88;;;19.60;99.90;;;;;;4950272;29;20043;-87
2023/07/10 00:05:51;;;;;;;29.50;25.52;;;19.60;99.90;;;;;;4951108;29;20047;-87
2023/07/10 00:08:17;;;;;;;28.08;21.60;;;19.60;99.90;;;;;;4934668;29;20039;-87
2023/07/10 00:10:43;;;;;;;36.60;24.40;;;19.60;99.90;;;;;;4934979;29;20043;-87
2023/07/10 00:13:11;;;;;;;37.03;27.15;;;19.50;99.90;;;;;;4951140;29;20549;-88
2023/07/10 00:15:37;;;;;;;30.85;24.65;;;19.50;99.90;;;;;;4935419;29;20489;-88
2023/07/10 00:18:10;;;;;;;26.92;23.95;;;19.50;99.90;;;;;;4950918;29;20047;-88
2023/07/10 00:20:36;;;;;;;32.45;26.33;;;19.60;99.90;;;;;;4935577;29;20063;-89
2023/07/10 00:23:01;;;;;;;38.22;23.63;;;19.60;99.90;;;;;;4935499;29;20062;-88
2023/07/10 00:25:27;;;;;;;34.00;30.00;;;19.60;99.90;;;;;;4936267;29;20043;-88
2023/07/10 00:27:53;;;;;;;37.97;27.63;;;19.60;99.90;;;;;;4952083;29;20039;-89
2023/07/10 00:30:24;;;;;;;36.08;27.17;;;19.60;99.90;;;;;;4950756;29;20039;-88
2023/07/10 00:32:52;;;;;;;32.53;24.65;;;19.60;99.90;;;;;;4934211;29;20046;-88
2023/07/10 00:35:23;;;;;;;39.03;29.83;;;19.60;99.90;;;;;;4950698;29;20489;-88
2023/07/10 00:38:01;;;;;;;27.52;20.92;;;19.60;99.90;;;;;;4934965;29;20044;-88
2023/07/10 00:40:30;;;;;;;26.80;21.42;;;19.60;99.90;;;;;;4935008;29;20043;-89
2023/07/10 00:43:04;;;;;;;43.30;31.58;;;19.60;99.90;;;;;;4934373;29;20118;-88
2023/07/10 00:45:30;;;;;;;29.50;21.80;;;19.60;99.90;;;;;;4950373;29;20043;-89
2023/07/10 00:48:13;;;;;;;31.27;26.95;;;19.50;99.90;;;;;;4950917;29;20130;-88
2023/07/10 00:50:45;;;;;;;34.13;25.83;;;19.50;99.90;;;;;;4935071;29;20051;-88
2023/07/10 00:53:39;;;;;;;31.77;23.90;;;19.40;99.90;;;;;;4951300;29;20050;-88
2023/07/10 00:56:11;;;;;;;33.13;23.50;;;19.60;99.90;;;;;;4964193;28;20039;-88
2023/07/10 00:58:40;;;;;;;34.33;26.77;;;19.60;99.90;;;;;;4915911;29;20054;-88
2023/07/10 01:01:13;;;;;;;30.65;26.25;;;19.60;99.90;;;;;;4915449;29;20083;-88
2023/07/10 01:03:40;;;;;;;37.05;29.75;;;19.60;99.90;;;;;;4915991;29;20562;-89
2023/07/10 01:06:22;;;;;;;33.45;25.38;;;19.70;99.90;;;;;;4915423;29;20059;-88
2023/07/10 01:09:08;;;;;;;41.25;26.75;;;19.60;99.90;;;;;;4938511;28;20035;-88
2023/07/10 01:11:36;;;;;;;29.95;23.20;;;19.60;99.90;;;;;;4954742;29;20043;-88
2023/07/10 01:14:04;;;;;;;31.15;27.33;;;19.60;99.90;;;;;;4938535;29;20533;-88
2023/07/10 01:16:33;;;;;;;32.80;23.75;;;19.50;99.90;;;;;;4938704;29;20043;-88
2023/07/10 01:18:59;;;;;;;36.53;28.88;;;19.60;99.90;;;;;;4938144;29;20098;-88
2023/07/10 01:21:31;;;;;;;44.10;33.03;;;19.50;99.90;;;;;;4954399;29;20080;-88
2023/07/10 01:24:02;;;;;;;42.72;31.10;;;19.50;99.90;;;;;;4953655;28;20139;-88
2023/07/10 01:26:29;;;;;;;43.70;31.45;;;19.50;99.90;;;;;;4953768;29;20082;-88
2023/07/10 01:28:57;;;;;;;37.20;29.90;;;19.50;99.90;;;;;;4953428;29;20070;-89
2023/07/10 01:31:24;;;;;;;43.97;33.00;;;19.50;99.90;;;;;;4954352;29;20039;-88
2023/07/10 01:34:00;;;;;;;44.83;29.13;;;19.50;99.90;;;;;;4953760;29;20179;-88
2023/07/10 01:36:31;;;;;;;46.55;31.60;;;19.50;99.90;;;;;;4953965;29;20122;-88
2023/07/10 01:39:09;;;;;;;48.70;33.20;;;19.50;99.90;;;;;;4954706;28;20408;-88
2023/07/10 01:41:39;;;;;;;52.28;34.92;;;19.40;99.90;;;;;;4953454;29;20090;-88
2023/07/10 01:44:32;;;;;;;47.88;31.75;;;19.40;99.90;;;;;;4953445;29;20061;-88
2023/07/10 01:47:00;;;;;;;53.63;38.57;;;19.30;99.90;;;;;;4937588;29;20114;-89
2023/07/10 01:49:41;;;;;;;46.42;32.40;;;19.30;99.90;;;;;;4954744;28;20402;-88
2023/07/10 01:52:08;;;;;;;46.40;35.38;;;19.30;99.90;;;;;;4937871;29;20042;-89
2023/07/10 01:54:34;;;;;;;56.00;39.25;;;19.20;99.90;;;;;;4953696;29;20039;-88
2023/07/10 01:57:00;;;;;;;52.50;38.53;;;19.20;99.90;;;;;;4937603;29;20553;-88
2023/07/10 01:59:27;;;;;;;49.90;37.88;;;19.20;99.90;;;;;;4936645;29;20138;-88
2023/07/10 02:01:57;;;;;;;51.90;33.08;;;19.20;99.90;;;;;;4937701;29;20478;-88
2023/07/10 02:04:26;;;;;;;56.65;38.83;;;19.10;99.90;;;;;;4937273;29;20098;-88
2023/07/10 02:06:55;;;;;;;56.22;35.20;;;19.10;99.90;;;;;;4953504;29;20437;-89
2023/07/10 02:09:25;;;;;;;52.67;33.20;;;19.10;99.90;;;;;;4937759;29;20035;-88
2023/07/10 02:11:51;;;;;;;57.22;41.88;;;19.10;99.90;;;;;;4953232;29;20039;-89
2023/07/10 02:14:17;;;;;;;41.30;29.75;;;19.10;99.90;;;;;;4937058;29;20043;-88
2023/07/10 02:16:46;;;;;;;57.53;36.92;;;19.10;99.90;;;;;;4953266;29;20123;-89
2023/07/10 02:19:15;;;;;;;46.20;33.70;;;19.00;99.90;;;;;;4937178;29;20137;-89
2023/07/10 02:21:41;;;;;;;48.08;34.97;;;19.00;99.90;;;;;;4952720;28;20043;-88
2023/07/10 02:24:08;;;;;;;44.08;30.67;;;19.00;99.90;;;;;;4937180;29;20055;-87
2023/07/10 02:26:33;;;;;;;43.38;34.22;;;19.00;99.90;;;;;;4952679;29;20050;-89
2023/07/10 02:29:00;;;;;;;44.45;34.13;;;18.90;99.90;;;;;;4937639;29;20043;-89
2023/07/10 02:31:26;;;;;;;46.03;34.53;;;18.90;99.90;;;;;;4937018;29;20046;-88
2023/07/10 02:33:52;;;;;;;49.53;35.10;;;18.90;99.90;;;;;;4969284;28;20083;-89
2023/07/10 02:36:21;;;;;;;44.72;33.13;;;18.90;99.90;;;;;;4952717;29;20047;-89
2023/07/10 02:38:47;;;;;;;53.80;38.97;;;18.90;99.90;;;;;;4953399;29;20046;-89
2023/07/10 02:41:16;;;;;;;46.72;32.50;;;18.90;99.90;;;;;;4937248;29;20043;-89
2023/07/10 02:43:42;;;;;;;47.90;34.85;;;18.90;99.90;;;;;;4936435;29;20098;-88
2023/07/10 02:46:07;;;;;;;47.55;34.15;;;18.90;99.90;;;;;;4953551;29;20402;-89
2023/07/10 02:48:33;;;;;;;40.90;33.80;;;18.80;99.90;;;;;;4953633;29;20449;-87
2023/07/10 02:51:00;;;;;;;46.30;36.40;;;18.80;99.90;;;;;;4937362;29;20199;-88
2023/07/10 02:53:26;;;;;;;45.85;36.92;;;18.80;99.90;;;;;;4936931;29;20086;-89
2023/07/10 02:55:52;;;;;;;42.70;32.20;;;18.80;99.90;;;;;;4936368;29;20090;-88
2023/07/10 02:58:18;;;;;;;44.53;33.00;;;18.60;99.90;;;;;;4936826;29;20047;-88
2023/07/10 03:00:43;;;;;;;44.88;33.22;;;18.80;99.90;;;;;;4936696;29;20117;-88
2023/07/10 03:03:09;;;;;;;52.30;38.38;;;18.90;99.90;;;;;;4952382;28;20069;-87
2023/07/10 03:05:35;;;;;;;47.10;39.55;;;18.80;99.90;;;;;;4936634;29;20039;-87
2023/07/10 03:08:01;;;;;;;37.40;31.48;;;18.80;99.90;;;;;;4937007;29;20103;-88
2023/07/10 03:10:26;;;;;;;42.17;32.33;;;18.80;99.90;;;;;;4935965;29;20446;-89
2023/07/10 03:12:52;;;;;;;52.50;30.90;;;18.80;99.90;;;;;;4952862;29;20486;-89
2023/07/10 03:15:18;;;;;;;35.15;30.33;;;18.80;99.90;;;;;;4936245;29;20486;-89
2023/07/10 03:17:46;;;;;;;37.22;32.40;;;18.80;99.90;;;;;;4952872;29;20058;-89
2023/07/10 03:20:15;;;;;;;37.75;31.05;;;18.80;99.90;;;;;;4952635;29;20513;-89
2023/07/10 03:22:41;;;;;;;41.03;29.75;;;18.90;99.90;;;;;;4951713;29;20059;-89
2023/07/10 03:25:07;;;;;;;36.85;30.83;;;18.90;99.90;;;;;;4951787;29;20106;-89
2023/07/10 03:27:32;;;;;;;34.80;28.23;;;18.80;99.90;;;;;;4936460;29;20035;-89
2023/07/10 03:29:58;;;;;;;37.70;31.75;;;18.80;99.90;;;;;;4952034;28;20114;-89
2023/07/10 03:32:24;;;;;;;35.92;30.52;;;18.80;99.90;;;;;;4952301;28;20049;-89
2023/07/10 03:34:53;;;;;;;34.78;28.75;;;18.70;99.90;;;;;;4936205;29;20039;-89
2023/07/10 03:37:21;;;;;;;36.83;29.23;;;18.70;99.90;;;;;;4951965;29;20043;-89
2023/07/10 03:39:47;;;;;;;40.22;32.25;;;18.70;99.90;;;;;;4951779;29;20035;-89
2023/07/10 03:42:13;;;;;;;36.65;32.38;;;18.70;99.90;;;;;;4952017;29;20582;-89
2023/07/10 03:44:38;;;;;;;39.70;33.65;;;18.70;99.90;;;;;;4952570;29;20039;-90
2023/07/10 03:47:04;;;;;;;39.17;32.25;;;18.70;99.90;;;;;;4935752;29;20070;-90
2023/07/10 03:49:30;;;;;;;38.58;29.60;;;18.70;99.90;;;;;;4935487;29;20133;-89
2023/07/10 03:51:58;;;;;;;37.63;31.60;;;18.70;99.90;;;;;;4956255;29;20039;-88
2023/07/10 03:54:24;;;;;;;37.35;31.55;;;18.70;99.90;;;;;;4942159;29;20140;-87
2023/07/10 03:56:50;;;;;;;42.85;35.75;;;18.70;99.90;;;;;;4935861;29;20078;-88
2023/07/10 03:59:18;;;;;;;41.92;34.45;;;18.70;99.90;;;;;;4951773;29;20047;-89
2023/07/10 04:01:47;;;;;;;38.00;33.15;;;18.70;99.90;;;;;;4951874;29;20043;-88
2023/07/10 04:04:15;;;;;;;38.58;29.63;;;18.70;99.90;;;;;;4951900;29;20094;-88
2023/07/10 04:06:41;;;;;;;35.10;27.05;;;18.70;99.90;;;;;;4935400;29;20074;-88
2023/07/10 04:09:07;;;;;;;38.00;31.38;;;18.80;99.90;;;;;;4952129;29;20106;-88
2023/07/10 04:11:33;;;;;;;38.05;31.77;;;18.80;99.90;;;;;;4951922;29;20050;-88
2023/07/10 04:13:58;;;;;;;40.17;35.85;;;18.90;99.90;;;;;;4954178;28;20179;-89
2023/07/10 04:16:27;;;;;;;41.85;29.77;;;19.00;99.90;;;;;;4951176;29;20086;-88
2023/07/10 04:18:54;;;;;;;32.70;27.83;;;19.00;99.90;;;;;;4950083;29;20138;-87
2023/07/10 04:21:26;;;;;;;35.08;30.83;;;18.90;99.90;;;;;;4934923;29;20083;-89
2023/07/10 04:23:52;;;;;;;36.88;29.70;;;19.00;99.90;;;;;;4951192;29;20051;-88
2023/07/10 04:26:25;;;;;;;31.50;28.15;;;19.00;99.90;;;;;;4936568;29;20046;-89
2023/07/10 04:28:54;;;;;;;33.65;28.15;;;19.00;99.90;;;;;;4951454;29;20040;-88
2023/07/10 04:31:24;;;;;;;38.45;30.52;;;19.10;99.90;;;;;;4951845;29;20047;-89
2023/07/10 04:33:53;;;;;;;31.15;27.60;;;19.10;99.90;;;;;;4951008;29;20039;-89
2023/07/10 04:36:22;;;;;;;35.70;31.90;;;19.20;99.90;;;;;;4936317;29;20367;-89
2023/07/10 04:38:52;;;;;;;32.25;25.50;;;19.10;99.90;;;;;;4952051;29;20035;-89
2023/07/10 04:41:32;;;;;;;36.55;32.67;;;19.30;99.90;;;;;;4953601;29;20049;-89
2023/07/10 04:43:58;;;;;;;33.42;27.90;;;19.30;99.90;;;;;;4939024;29;20051;-90
2023/07/10 04:46:23;;;;;;;29.77;24.90;;;19.30;99.90;;;;;;4955995;28;20313;-89
2023/07/10 04:48:52;;;;;;;31.08;26.95;;;19.30;99.90;;;;;;4956219;29;20124;-89
2023/07/10 04:51:22;;;;;;;34.70;27.98;;;19.40;99.90;;;;;;4940044;29;20043;-89
2023/07/10 04:53:48;;;;;;;33.13;29.48;;;19.70;99.90;;;;;;4940031;29;20094;-88
2023/07/10 04:56:16;;;;;;;27.10;22.83;;;19.40;99.90;;;;;;4956037;29;20207;-89
2023/07/10 04:58:45;;;;;;;25.30;22.13;;;19.50;99.90;;;;;;4939693;29;20043;-89
2023/07/10 05:01:11;;;;;;;21.25;17.73;;;19.60;99.90;;;;;;4955033;29;20138;-90
2023/07/10 05:03:37;;;;;;;20.88;18.88;;;19.60;99.90;;;;;;4954791;29;20114;-89
2023/07/10 05:06:05;;;;;;;18.27;16.33;;;19.70;99.90;;;;;;4938304;29;20176;-89
2023/07/10 05:08:31;;;;;;;20.02;17.92;;;19.60;99.90;;;;;;4940000;29;20497;-89
2023/07/10 05:10:56;;;;;;;20.35;16.27;;;19.60;99.90;;;;;;4939789;29;20039;-89
2023/07/10 05:13:25;;;;;;;18.40;15.43;;;19.50;99.90;;;;;;4954490;29;20498;-89
2023/07/10 05:15:51;;;;;;;20.42;17.50;;;19.50;99.90;;;;;;4954826;29;20039;-90
2023/07/10 05:18:17;;;;;;;17.98;16.20;;;19.50;99.90;;;;;;4983625;28;20070;-89
2023/07/10 05:20:44;;;;;;;16.88;14.70;;;19.40;99.90;;;;;;4954192;29;20494;-90
2023/07/10 05:23:10;;;;;;;16.75;14.27;;;19.40;99.90;;;;;;4937732;29;20062;-89
2023/07/10 05:25:36;;;;;;;18.42;16.08;;;19.50;99.90;;;;;;4953994;29;20039;-89
2023/07/10 05:28:02;;;;;;;16.23;14.32;;;19.50;99.90;;;;;;4937922;29;20126;-90
2023/07/10 05:30:29;;;;;;;16.15;14.52;;;19.50;99.90;;;;;;4954217;29;20427;-89
2023/07/10 05:32:54;;;;;;;16.23;14.48;;;19.60;99.90;;;;;;4919076;29;20032;-90
2023/07/10 05:35:20;;;;;;;18.45;14.10;;;19.60;99.90;;;;;;4918564;29;20403;-89
2023/07/10 05:37:47;;;;;;;15.95;12.70;;;19.60;99.90;;;;;;4934542;29;20032;-89
2023/07/10 05:40:16;;;;;;;15.10;13.60;;;19.70;99.90;;;;;;4949226;29;20059;-89
2023/07/10 05:42:42;;;;;;;18.27;16.52;;;19.80;99.90;;;;;;4950656;28;20040;-89
2023/07/10 05:45:08;;;;;;;16.73;14.80;;;19.80;99.90;;;;;;4950154;29;20038;-89
2023/07/10 05:47:34;;;;;;;16.08;14.48;;;19.90;99.90;;;;;;4950309;28;20044;-89
2023/07/10 05:50:00;;;;;;;14.20;12.70;;;20.00;99.90;;;;;;4933967;29;20031;-89
2023/07/10 05:52:26;;;;;;;15.20;13.63;;;20.00;99.90;;;;;;4934269;29;20129;-89
2023/07/10 05:54:52;;;;;;;17.17;14.25;;;20.10;99.90;;;;;;4934941;29;20494;-89
2023/07/10 05:57:18;;;;;;;14.35;11.95;;;20.20;99.90;;;;;;4966325;28;20039;-89
2023/07/10 05:59:43;;;;;;;15.63;14.05;;;20.20;99.90;;;;;;4949724;29;20047;-89
2023/07/10 06:02:15;;;;;;;12.55;10.07;;;20.20;99.90;;;;;;4950086;28;20131;-90
2023/07/10 06:04:40;;;;;;;12.23;10.73;;;20.20;99.90;;;;;;4949877;28;20379;-91
2023/07/10 06:07:07;;;;;;;14.63;10.25;;;20.20;99.90;;;;;;4950502;28;20102;-92
2023/07/10 06:09:32;;;;;;;14.75;12.93;;;20.30;99.90;;;;;;4950554;28;20048;-92
2023/07/10 06:11:58;;;;;;;13.80;12.38;;;20.40;99.90;;;;;;4950010;28;20042;-92
2023/07/10 06:14:24;;;;;;;13.23;11.88;;;20.50;99.90;;;;;;4950454;28;20119;-92
2023/07/10 06:16:52;;;;;;;10.57;8.48;;;20.50;99.90;;;;;;4934231;29;20276;-93
2023/07/10 06:19:20;;;;;;;11.88;8.85;;;20.70;99.90;;;;;;4933922;29;20083;-92
2023/07/10 06:21:46;;;;;;;12.20;10.60;;;20.70;99.90;;;;;;4950323;28;20491;-93
2023/07/10 06:24:15;;;;;;;12.80;11.60;;;20.80;99.90;;;;;;4967882;28;20062;-92
2023/07/10 06:26:40;;;;;;;12.23;7.50;;;21.30;99.90;;;;;;4964842;28;20111;-91
2023/07/10 06:29:06;;;;;;;10.73;5.57;;;22.00;99.90;;;;;;4937168;29;20126;-91
2023/07/10 06:31:32;;;;;;;11.25;7.93;;;22.20;99.90;;;;;;4937111;29;20063;-90
2023/07/10 06:33:58;;;;;;;8.68;5.75;;;22.50;99.90;;;;;;4953071;29;20043;-91
2023/07/10 06:36:24;;;;;;;9.38;5.10;;;23.90;99.90;;;;;;4936852;29;20043;-90
2023/07/10 06:38:50;;;;;;;8.85;4.97;;;25.50;99.90;;;;;;4937038;29;20046;-90
2023/07/10 06:41:15;;;;;;;7.57;4.80;;;26.40;99.90;;;;;;4936616;29;20043;-91
2023/07/10 06:43:41;;;;;;;9.38;6.13;;;26.50;99.90;;;;;;4936335;29;20053;-90
2023/07/10 06:46:07;;;;;;;8.95;6.18;;;26.10;99.90;;;;;;4936767;29;20528;-89
2023/07/10 06:48:33;;;;;;;9.32;6.60;;;25.70;99.90;;;;;;4952531;29;20097;-90
2023/07/10 06:50:58;;;;;;;10.15;6.13;;;25.30;99.90;;;;;;4936633;29;20043;-89
2023/07/10 06:53:25;;;;;;;8.93;6.63;;;24.90;99.90;;;;;;4952951;29;20043;-89
2023/07/10 06:55:56;;;;;;;9.20;5.95;;;24.80;99.90;;;;;;4952428;29;20043;-90
2023/07/10 06:58:22;;;;;;;8.82;5.60;;;25.70;99.90;;;;;;4952938;28;20042;-89
2023/07/10 07:00:47;;;;;;;12.45;8.40;;;26.70;99.90;;;;;;4968305;28;20054;-90
2023/07/10 07:03:13;;;;;;;8.80;5.32;;;27.90;99.90;;;;;;4951603;28;20039;-89
2023/07/10 07:05:42;;;;;;;10.38;7.88;;;28.40;99.90;;;;;;4968826;28;20201;-89
2023/07/10 07:08:07;;;;;;;22.92;20.88;;;29.20;99.90;;;;;;4967505;28;20039;-90
2023/07/10 07:10:33;;;;;;;17.40;15.80;;;29.60;99.90;;;;;;4952247;29;20039;-89
2023/07/10 07:12:59;;;;;;;18.20;16.75;;;30.10;99.90;;;;;;4935911;29;20039;-89
2023/07/10 07:15:25;;;;;;;26.85;24.83;;;30.60;99.90;;;;;;4951756;29;20036;-89
2023/07/10 07:17:51;;;;;;;36.22;33.58;;;30.80;99.90;;;;;;4935167;29;20220;-89
2023/07/10 07:20:17;;;;;;;120.60;112.63;;;31.40;99.90;;;;;;4935126;29;20443;-89
2023/07/10 07:22:43;;;;;;;235.43;219.32;;;30.90;98.20;;;;;;4951332;29;20059;-89
2023/07/10 07:25:08;;;;;;;775.97;714.97;;;31.40;99.60;;;;;;4935272;29;20090;-88
2023/07/10 07:27:34;;;;;;;904.97;826.35;;;31.60;99.10;;;;;;4935501;29;20039;-89
2023/07/10 07:30:05;;;;;;;966.38;877.47;;;31.90;99.00;;;;;;4950947;29;20039;-90
2023/07/10 07:32:31;;;;;;;908.05;828.38;;;32.00;99.10;;;;;;4935306;29;20086;-88
2023/07/10 07:34:56;;;;;;;1028.93;918.92;;;32.10;98.40;;;;;;4952497;28;20047;-90
2023/07/10 07:37:22;;;;;;;1065.22;946.58;;;32.20;98.20;;;;;;4968454;28;20478;-90
2023/07/10 07:39:48;;;;;;;1399.15;999.90;;;32.30;98.20;;;;;;4950888;29;20438;-90
2023/07/10 07:42:14;;;;;;;1868.20;999.90;;;32.70;97.70;;;;;;4951953;29;20710;-90
2023/07/10 07:44:41;;;;;;;1999.90;999.90;;;32.90;97.10;;;;;;4951408;29;20060;-90
2023/07/10 07:47:07;;;;;;;1999.90;999.90;;;32.90;96.90;;;;;;4935032;29;20121;-90
2023/07/10 07:49:32;;;;;;;1999.90;999.90;;;32.80;96.90;;;;;;4951389;29;20099;-90
2023/07/10 07:51:58;;;;;;;1999.90;999.90;;;32.70;96.60;;;;;;4935366;29;20044;-90
2023/07/10 07:54:24;;;;;;;1999.90;999.90;;;32.60;97.10;;;;;;4951684;29;20041;-90
2023/07/10 07:56:50;;;;;;;1999.90;999.90;;;32.90;96.70;;;;;;4935408;29;20478;-89
2023/07/10 07:59:18;;;;;;;1999.90;999.90;;;33.00;96.60;;;;;;4935266;29;20196;-90
2023/07/10 08:01:44;;;;;;;1999.90;999.90;;;32.90;96.70;;;;;;4935429;29;20046;-89
2023/07/10 08:04:10;;;;;;;1999.90;999.90;;;33.00;96.20;;;;;;4951572;29;20065;-89
2023/07/10 08:06:36;;;;;;;1999.90;999.90;;;32.70;95.90;;;;;;4951953;28;20043;-89
2023/07/10 08:09:02;;;;;;;1999.90;999.90;;;32.90;96.00;;;;;;4936604;29;20366;-90
2023/07/10 08:11:28;;;;;;;1999.90;999.90;;;33.10;95.90;;;;;;4936383;29;20068;-90
2023/07/10 08:13:54;;;;;;;1999.90;999.90;;;33.00;95.40;;;;;;4951092;29;20043;-90
2023/07/10 08:16:23;;;;;;;1999.90;999.90;;;32.40;95.80;;;;;;4950566;29;20050;-89
2023/07/10 08:18:51;;;;;;;1999.90;999.90;;;32.40;95.50;;;;;;4934386;29;20058;-89
2023/07/10 08:21:18;;;;;;;1999.90;999.90;;;32.90;95.70;;;;;;4935845;29;20039;-90
2023/07/10 08:23:44;;;;;;;1999.90;999.90;;;32.70;94.40;;;;;;4934670;29;20043;-89
2023/07/10 08:26:13;;;;;;;1999.90;999.90;;;32.00;95.10;;;;;;4935129;29;20039;-89
2023/07/10 08:28:39;;;;;;;1999.90;999.90;;;31.80;96.10;;;;;;4935435;29;20074;-89
2023/07/10 08:31:05;;;;;;;1999.90;999.90;;;31.80;96.10;;;;;;4935012;29;20081;-89
2023/07/10 08:33:30;;;;;;;1999.90;999.90;;;32.10;96.30;;;;;;4935713;29;20480;-88
2023/07/10 08:36:02;;;;;;;1999.90;999.90;;;32.40;95.00;;;;;;4951901;29;20047;-90
2023/07/10 08:38:28;;;;;;;1999.90;999.90;;;32.40;95.20;;;;;;4951802;29;20107;-91
2023/07/10 08:40:57;;;;;;;1999.90;999.90;;;31.80;94.60;;;;;;4951161;29;20078;-89
2023/07/10 08:43:30;;;;;;;1999.90;999.90;;;31.50;95.10;;;;;;4950802;29;20051;-89
2023/07/10 08:46:04;;;;;;;1999.90;999.90;;;31.00;94.90;;;;;;4950434;29;20039;-90
2023/07/10 08:48:38;;;;;;;1999.90;999.90;;;30.50;96.90;;;;;;4934838;29;20043;-91
2023/07/10 08:51:08;;;;;;;1999.90;999.90;;;30.80;96.00;;;;;;4935046;29;20066;-89
2023/07/10 08:53:39;;;;;;;1999.90;999.90;;;31.50;95.60;;;;;;4934997;29;20047;-89
2023/07/10 08:56:17;;;;;;;1999.90;999.90;;;31.80;96.20;;;;;;4950995;29;20051;-90
2023/07/10 08:58:43;;;;;;;1999.90;999.90;;;31.80;95.20;;;;;;4950866;29;20035;-90
2023/07/10 09:01:24;;;;;;;1999.90;999.90;;;31.70;95.70;;;;;;4950495;29;20403;-92
2023/07/10 09:03:52;;;;;;;1999.90;999.90;;;31.40;95.90;;;;;;4934722;29;20046;-91
2023/07/10 09:06:43;;;;;;;1999.90;999.90;;;31.40;95.80;;;;;;4935097;29;20042;-90
2023/07/10 09:09:28;;;;;;;1999.90;999.90;;;30.60;95.30;;;;;;4915620;29;20042;-90
2023/07/10 09:11:58;;;;;;;1999.90;999.90;;;30.10;96.00;;;;;;4931516;29;20355;-90
2023/07/10 09:14:28;;;;;;;1999.90;999.90;;;29.60;96.70;;;;;;4915160;29;20040;-90
2023/07/10 09:16:55;;;;;;;1999.90;999.90;;;29.30;96.50;;;;;;4916025;29;20288;-89
2023/07/10 09:19:23;;;;;;;1999.90;999.90;;;29.20;96.20;;;;;;4931953;29;20167;-90
2023/07/10 09:21:51;;;;;;;1878.68;999.90;;;28.70;94.90;;;;;;4920549;29;20489;-90
2023/07/10 09:24:23;;;;;;;1767.60;999.90;;;28.80;97.60;;;;;;4950627;29;20047;-90
2023/07/10 09:26:52;;;;;;;1544.05;999.90;;;28.50;96.60;;;;;;4934974;29;20183;-89
2023/07/10 09:29:24;;;;;;;1395.78;999.90;;;28.50;97.80;;;;;;4950159;28;20046;-90
2023/07/10 09:32:08;;;;;;;1542.43;999.90;;;28.90;98.20;;;;;;4969805;28;20171;-90
2023/07/10 09:34:34;;;;;;;1489.88;999.90;;;28.80;96.70;;;;;;4938686;29;20109;-90
2023/07/10 09:37:05;;;;;;;1411.53;999.90;;;28.80;97.20;;;;;;4954831;29;20035;-90
2023/07/10 09:39:32;;;;;;;1180.53;977.92;;;28.30;96.60;;;;;;4957139;29;20049;-90
2023/07/10 09:42:00;;;;;;;1275.90;994.05;;;28.20;97.30;;;;;;4940508;29;20051;-90
2023/07/10 09:44:39;;;;;;;1226.07;981.58;;;28.30;97.70;;;;;;4954519;29;20043;-90
2023/07/10 09:47:13;;;;;;;1218.00;997.13;;;28.40;97.40;;;;;;4954237;29;20040;-89
2023/07/10 09:49:46;;;;;;;950.67;856.42;;;28.20;97.20;;;;;;4938710;29;20198;-90
2023/07/10 09:52:36;;;;;;;900.05;812.97;;;28.10;98.30;;;;;;4953967;29;20054;-90
2023/07/10 09:55:08;;;;;;;972.22;877.13;;;28.50;97.90;;;;;;4938057;29;20513;-90
2023/07/10 09:57:57;;;;;;;1024.75;917.75;;;28.70;98.30;;;;;;4953620;29;20039;-90
2023/07/10 10:00:24;;;;;;;913.03;826.05;;;28.50;98.10;;;;;;4953940;29;20070;-90
2023/07/10 10:03:14;;;;;;;958.38;866.00;;;28.70;98.30;;;;;;4937135;29;20031;-87
2023/07/10 10:05:41;;;;;;;1043.07;932.40;;;28.70;97.90;;;;;;4936398;29;20409;-90
2023/07/10 10:08:44;;;;;;;1022.03;911.25;;;28.30;96.60;;;;;;4952510;29;20031;-89
2023/07/10 10:11:12;;;;;;;939.53;848.30;;;28.00;98.10;;;;;;4984308;28;20041;-87
2023/07/10 10:13:46;;;;;;;712.47;654.15;;;27.60;97.40;;;;;;4938111;29;20469;-88
2023/07/10 10:16:40;;;;;;;656.88;605.05;;;27.40;98.50;;;;;;4936261;29;20402;-88
2023/07/10 10:19:17;;;;;;;603.97;557.97;;;27.70;99.10;;;;;;4984392;28;20134;-87
2023/07/10 10:21:42;;;;;;;579.28;536.42;;;27.90;99.10;;;;;;4951357;29;20211;-87
2023/07/10 10:24:11;;;;;;;603.85;558.63;;;28.10;99.00;;;;;;4969888;28;20433;-87
2023/07/10 10:26:55;;;;;;;902.42;817.65;;;28.50;99.50;;;;;;4938403;28;20041;-88
2023/07/10 10:29:32;;;;;;;832.35;757.38;;;28.50;97.40;;;;;;4954911;28;20079;-88
2023/07/10 10:32:07;;;;;;;894.50;811.85;;;28.50;98.20;;;;;;4938697;28;20046;-87
2023/07/10 10:34:38;;;;;;;919.05;832.80;;;28.60;98.30;;;;;;4938853;28;20047;-88
2023/07/10 10:37:12;;;;;;;1030.13;921.38;;;28.80;98.30;;;;;;4936673;28;20074;-90
2023/07/10 10:39:45;;;;;;;1166.28;992.38;;;29.10;97.50;;;;;;4938917;28;20074;-90
2023/07/10 10:42:49;;;;;;;1105.90;971.47;;;29.30;96.80;;;;;;4954522;28;20513;-89
2023/07/10 10:45:33;;;;;;;1122.70;964.15;;;29.40;96.00;;;;;;4955417;28;20046;-89
2023/07/10 10:48:19;;;;;;;1175.03;978.40;;;29.00;96.90;;;;;;4939622;28;20087;-89
2023/07/10 10:50:45;;;;;;;1011.28;907.60;;;28.80;96.90;;;;;;4955413;28;20072;-90
2023/07/10 10:53:24;;;;;;;1014.33;911.08;;;28.30;97.20;;;;;;4938872;28;20073;-89
2023/07/10 10:55:59;;;;;;;1019.40;916.20;;;28.20;96.40;;;;;;4986655;28;20039;-89
2023/07/10 10:58:51;;;;;;;824.40;751.20;;;27.60;96.50;;;;;;4971133;28;20039;-91
2023/07/10 11:01:49;;;;;;;908.67;825.60;;;27.80;97.80;;;;;;4939415;28;20371;-89
2023/07/10 11:04:22;;;;;;;913.80;830.13;;;27.90;97.70;;;;;;4954683;28;20046;-89
2023/07/10 11:06:58;;;;;;;995.22;894.80;;;28.10;97.50;;;;;;4954916;28;20086;-88
2023/07/10 11:09:34;;;;;;;1002.50;900.92;;;28.00;96.80;;;;;;4938644;28;20041;-90
2023/07/10 11:12:02;;;;;;;925.45;838.15;;;28.00;96.20;;;;;;4938650;28;20053;-92
2023/07/10 11:14:28;;;;;;;946.67;856.05;;;28.00;96.60;;;;;;4939275;28;20060;-91
2023/07/10 11:16:55;;;;;;;975.75;879.83;;;28.20;97.20;;;;;;4939481;28;20045;-93
2023/07/10 11:19:26;;;;;;;1027.88;920.92;;;28.40;97.40;;;;;;4955931;28;20074;-94
2023/07/10 11:21:54;;;;;;;1046.40;937.13;;;28.60;97.60;;;;;;4939346;28;20045;-94
2023/07/10 11:24:28;;;;;;;1089.10;967.28;;;28.80;97.20;;;;;;4934249;29;20043;-94
2023/07/10 11:27:00;;;;;;;1085.63;966.78;;;28.80;95.80;;;;;;4933333;29;20039;-93
2023/07/10 11:29:54;;;;;;;1156.22;981.00;;;28.70;96.10;;;;;;4950488;29;20050;-93
2023/07/10 11:32:23;;;;;;;1230.40;990.50;;;28.90;95.60;;;;;;4933097;29;20227;-95
2023/07/10 11:35:16;;;;;;;1122.88;991.25;;;28.70;95.30;;;;;;4950177;29;20043;-93
2023/07/10 11:37:51;;;;;;;1157.25;978.25;;;28.30;95.70;;;;;;4928624;29;20055;-89
2023/07/10 11:40:29;;;;;;;1132.28;975.45;;;28.20;94.70;;;;;;4967028;28;20422;-88
2023/07/10 11:43:27;;;;;;;1037.30;929.63;;;27.80;95.00;;;;;;4966276;28;20053;-88
2023/07/10 11:46:17;;;;;;;1032.38;926.25;;;27.60;95.90;;;;;;4920614;29;20063;-86
2023/07/10 11:49:01;;;;;;;984.55;890.42;;;27.40;95.30;;;;;;4966100;28;20074;-87
2023/07/10 11:51:29;;;;;;;996.30;898.95;;;27.50;96.30;;;;;;4966053;28;20039;-87
2023/07/10 11:54:04;;;;;;;1012.65;912.33;;;27.60;96.20;;;;;;4981467;28;20051;-88
2023/07/10 11:56:31;;;;;;;1021.95;915.90;;;27.60;96.30;;;;;;4950063;29;20130;-88
2023/07/10 11:59:17;;;;;;;988.40;893.65;;;27.80;96.10;;;;;;4950130;29;20078;-88
2023/07/10 12:01:43;;;;;;;1026.93;923.08;;;27.90;95.50;;;;;;4934236;29;20138;-88
2023/07/10 12:04:15;;;;;;;1011.45;910.83;;;27.90;94.90;;;;;;4951851;28;20666;-88
2023/07/10 12:06:45;;;;;;;1007.63;905.13;;;27.90;95.60;;;;;;4950974;29;20079;-94
2023/07/10 12:09:11;;;;;;;986.60;890.08;;;27.90;95.50;;;;;;4951831;29;20035;-93
2023/07/10 12:11:39;;;;;;;972.65;882.10;;;27.90;94.00;;;;;;4951270;29;20501;-91
2023/07/10 12:14:05;;;;;;;959.58;870.95;;;27.60;93.60;;;;;;4950923;29;20086;-91
2023/07/10 12:16:37;;;;;;;1005.30;903.90;;;27.50;94.30;;;;;;4950833;29;20042;-90
2023/07/10 12:19:16;;;;;;;999.65;901.85;;;27.60;95.10;;;;;;4951139;29;20051;-91
2023/07/10 12:21:42;;;;;;;947.47;861.85;;;27.70;95.40;;;;;;4935509;29;20078;-92
2023/07/10 12:24:16;;;;;;;944.47;857.70;;;28.00;94.70;;;;;;4951150;29;20063;-92
2023/07/10 12:26:42;;;;;;;959.63;869.80;;;28.20;95.10;;;;;;4952983;29;20047;-91
2023/07/10 12:29:15;;;;;;;987.35;893.90;;;28.30;94.90;;;;;;4935831;29;20046;-92
2023/07/10 12:31:42;;;;;;;957.20;868.90;;;28.60;95.10;;;;;;4936247;29;20071;-91